Time;durP1;ratioP1;P1;durP2;ratioP2;P2;SDS_P1;SDS_P2;PMS_P1;PMS_P2;Temp;Humidity;BMP_temperature;BMP_pressure;BME280_temperature;BME280_humidity;BME280_pressure;Samples;Min_cycle;Max_cycle;Signal;HPM_P1;HPM_P2
2021/09/22 00:02:34;;;;;;;12.45;8.83;;;;;;;13.50;94.97;100948.66;2805956;84;21016;-68
2021/09/22 00:06:37;;;;;;;10.25;9.05;;;;;;;13.48;95.08;100947.11;2806230;85;21071;-68
2021/09/22 00:10:39;;;;;;;11.78;9.33;;;;;;;13.45;95.37;100945.53;2805794;85;21246;-66
2021/09/22 00:14:41;;;;;;;11.33;8.50;;;;;;;13.43;95.13;100940.30;2806128;85;21054;-67
2021/09/22 00:18:43;;;;;;;13.88;9.23;;;;;;;13.42;95.36;100933.23;2806014;85;21007;-67
2021/09/22 00:22:45;;;;;;;10.68;8.50;;;;;;;13.37;95.62;100931.95;2805981;84;21054;-67
2021/09/22 00:26:47;;;;;;;11.70;10.50;;;;;;;13.31;95.54;100924.42;2805967;85;21039;-66
2021/09/22 00:30:49;;;;;;;8.95;7.00;;;;;;;13.26;96.00;100927.47;2806031;85;21026;-67
2021/09/22 00:34:51;;;;;;;11.00;8.55;;;;;;;13.18;95.75;100921.45;2806008;85;21011;-67
2021/09/22 00:38:53;;;;;;;13.53;7.97;;;;;;;13.05;96.33;100915.42;2805999;84;21032;-68
2021/09/22 00:42:55;;;;;;;9.40;7.00;;;;;;;12.92;96.80;100909.74;2805849;85;21047;-69
2021/09/22 00:46:58;;;;;;;11.80;8.73;;;;;;;12.81;97.68;100913.80;2808837;83;21040;-68
2021/09/22 00:51:06;;;;;;;9.75;7.78;;;;;;;12.66;98.49;100907.39;2814595;84;21103;-68
2021/09/22 00:55:11;;;;;;;13.18;8.83;;;;;;;12.57;99.11;100896.97;2814953;84;21015;-67
2021/09/22 00:59:12;;;;;;;13.45;8.05;;;;;;;12.52;99.57;100894.30;2814822;84;21012;-66
2021/09/22 01:03:14;;;;;;;10.32;8.40;;;;;;;12.52;99.83;100887.16;2814966;84;21008;-69
2021/09/22 01:07:17;;;;;;;12.05;7.37;;;;;;;12.49;100.00;100881.22;2814694;81;21023;-67
2021/09/22 01:11:20;;;;;;;9.70;6.78;;;;;;;12.48;100.00;100891.05;2814546;84;21039;-67
2021/09/22 01:15:31;;;;;;;10.88;6.87;;;;;;;12.51;100.00;100881.94;2814754;83;21027;-67
2021/09/22 01:19:34;;;;;;;8.08;6.42;;;;;;;12.53;100.00;100875.52;2814482;83;21024;-68
2021/09/22 01:23:36;;;;;;;6.97;6.28;;;;;;;12.55;100.00;100878.04;2814774;84;21016;-68
2021/09/22 01:27:55;;;;;;;7.97;6.65;;;;;;;12.55;100.00;100868.70;2814769;84;21107;-67
2021/09/22 01:31:57;;;;;;;8.33;5.67;;;;;;;12.57;100.00;100868.95;2813492;84;21008;-67
2021/09/22 01:35:59;;;;;;;7.28;5.28;;;;;;;12.57;100.00;100854.27;2815015;84;21075;-69
2021/09/22 01:40:02;;;;;;;5.60;4.70;;;;;;;12.60;100.00;100856.33;2814801;84;21066;-67
2021/09/22 01:44:05;;;;;;;6.35;5.17;;;;;;;12.62;100.00;100855.71;2814513;84;21162;-67
2021/09/22 01:48:07;;;;;;;6.47;5.78;;;;;;;12.61;100.00;100842.87;2814619;84;21040;-68
2021/09/22 01:52:09;;;;;;;8.75;7.17;;;;;;;12.64;100.00;100846.62;2814849;83;21060;-68
2021/09/22 01:56:12;;;;;;;7.80;6.83;;;;;;;12.61;100.00;100834.86;2815030;84;20996;-68
2021/09/22 02:00:14;;;;;;;7.12;5.72;;;;;;;12.65;100.00;100828.30;2814943;83;21038;-67
2021/09/22 02:04:16;;;;;;;15.95;8.88;;;;;;;12.64;100.00;100821.73;2809199;83;21051;-67
2021/09/22 02:08:18;;;;;;;14.33;10.08;;;;;;;12.60;100.00;100830.50;2815100;84;21075;-67
2021/09/22 02:12:20;;;;;;;12.53;9.58;;;;;;;12.60;100.00;100825.16;2853170;83;21516;-67
2021/09/22 02:16:22;;;;;;;10.90;8.48;;;;;;;12.60;100.00;100819.83;2853376;83;21054;-66
2021/09/22 02:20:25;;;;;;;12.33;9.68;;;;;;;12.54;100.00;100819.84;2852951;83;21033;-67
2021/09/22 02:24:27;;;;;;;15.90;11.57;;;;;;;12.57;100.00;100828.92;2853056;83;21012;-67
2021/09/22 02:28:29;;;;;;;14.38;9.95;;;;;;;12.62;100.00;100821.88;2853167;83;21073;-68
2021/09/22 02:32:31;;;;;;;15.63;9.75;;;;;;;12.65;100.00;100824.29;2853062;82;21108;-67
2021/09/22 02:36:33;;;;;;;13.45;10.30;;;;;;;12.68;100.00;100808.52;2853048;83;21061;-66
2021/09/22 02:40:36;;;;;;;16.12;14.03;;;;;;;12.70;100.00;100813.24;2853070;83;21014;-68
2021/09/22 02:44:38;;;;;;;13.75;10.08;;;;;;;12.72;100.00;100811.29;2852990;83;21306;-68
2021/09/22 02:48:40;;;;;;;20.65;12.88;;;;;;;12.73;100.00;100802.78;2852800;83;21034;-67
2021/09/22 02:52:42;;;;;;;33.73;13.83;;;;;;;12.76;100.00;100802.52;2853199;83;21018;-68
2021/09/22 02:56:44;;;;;;;19.25;11.03;;;;;;;12.75;100.00;100795.48;2853347;83;20999;-68
2021/09/22 03:00:47;;;;;;;19.62;12.82;;;;;;;12.77;100.00;100790.87;2851521;83;21074;-68
2021/09/22 03:04:49;;;;;;;21.15;14.15;;;;;;;12.82;100.00;100796.69;2852984;83;20996;-66
2021/09/22 03:08:51;;;;;;;25.15;14.13;;;;;;;12.89;100.00;100810.37;2853246;83;20979;-67
2021/09/22 03:12:53;;;;;;;21.05;15.43;;;;;;;12.92;100.00;100801.61;2852918;83;21022;-67
2021/09/22 03:16:55;;;;;;;20.25;15.80;;;;;;;12.96;100.00;100803.54;2853184;83;21033;-66
2021/09/22 03:20:57;;;;;;;20.57;15.25;;;;;;;12.98;100.00;100801.11;2852981;83;21081;-72
2021/09/22 03:24:59;;;;;;;23.10;15.75;;;;;;;13.00;100.00;100807.64;2846849;83;21043;-71
2021/09/22 03:29:01;;;;;;;18.80;14.78;;;;;;;13.05;100.00;100800.08;2840197;83;21031;-71
2021/09/22 03:33:03;;;;;;;22.02;13.72;;;;;;;13.07;100.00;100794.62;2822946;83;21101;-71
2021/09/22 03:37:05;;;;;;;24.47;16.97;;;;;;;13.07;100.00;100795.95;2840286;83;21032;-71
2021/09/22 03:41:08;;;;;;;18.82;15.35;;;;;;;13.06;100.00;100799.10;2822881;84;21039;-71
2021/09/22 03:45:11;;;;;;;17.80;12.40;;;;;;;13.00;100.00;100808.50;2839402;83;21080;-71
2021/09/22 03:49:12;;;;;;;22.75;17.02;;;;;;;12.99;100.00;100812.15;2817404;83;21046;-71
2021/09/22 03:53:17;;;;;;;19.35;14.03;;;;;;;13.04;100.00;100809.58;2815078;84;21053;-71
2021/09/22 03:57:19;;;;;;;21.62;16.57;;;;;;;13.05;100.00;100810.77;2814890;84;21026;-71
2021/09/22 04:01:21;;;;;;;19.65;15.95;;;;;;;13.09;100.00;100803.34;2814913;84;20986;-71
2021/09/22 04:05:24;;;;;;;20.25;15.05;;;;;;;13.09;100.00;100815.37;2814726;84;21040;-71
2021/09/22 04:09:26;;;;;;;21.48;14.90;;;;;;;13.10;100.00;100810.38;2814292;84;21086;-75
2021/09/22 04:13:28;;;;;;;24.95;14.93;;;;;;;13.13;100.00;100807.45;2814512;83;21061;-74
2021/09/22 04:17:30;;;;;;;23.45;16.15;;;;;;;13.16;100.00;100811.19;2814750;84;21129;-74
2021/09/22 04:21:33;;;;;;;20.45;14.65;;;;;;;13.17;100.00;100816.92;2814689;84;21018;-75
2021/09/22 04:25:37;;;;;;;16.50;12.80;;;;;;;13.19;100.00;100822.11;2815047;84;21016;-75
2021/09/22 04:29:39;;;;;;;17.05;14.13;;;;;;;13.19;100.00;100821.64;2814854;84;21069;-72
2021/09/22 04:33:40;;;;;;;16.45;13.35;;;;;;;13.21;100.00;100823.69;2814566;83;21063;-71
2021/09/22 04:37:44;;;;;;;21.07;12.70;;;;;;;13.24;100.00;100827.44;2852916;82;21082;-71
2021/09/22 04:41:46;;;;;;;14.98;11.43;;;;;;;13.23;100.00;100820.40;2852247;82;21140;-71
2021/09/22 04:45:49;;;;;;;16.35;12.65;;;;;;;13.20;100.00;100831.34;2852830;83;21056;-72
2021/09/22 04:49:51;;;;;;;14.63;12.60;;;;;;;13.15;100.00;100820.19;2853051;83;21034;-72
2021/09/22 04:53:53;;;;;;;21.93;14.23;;;;;;;13.11;100.00;100828.10;2852512;83;21018;-71
2021/09/22 04:57:56;;;;;;;23.02;11.03;;;;;;;13.11;100.00;100836.11;2853339;83;20998;-71
2021/09/22 05:02:00;;;;;;;17.50;12.07;;;;;;;13.11;100.00;100834.78;2852539;82;21113;-72
2021/09/22 05:06:02;;;;;;;21.85;14.00;;;;;;;13.11;100.00;100827.63;2852534;83;21121;-71
2021/09/22 05:10:05;;;;;;;17.15;13.00;;;;;;;13.10;100.00;100837.95;2853063;83;21069;-72
2021/09/22 05:14:07;;;;;;;20.45;13.20;;;;;;;13.12;100.00;100839.14;2852872;83;21022;-72
2021/09/22 05:18:09;;;;;;;14.33;10.32;;;;;;;13.12;100.00;100832.47;2853192;83;21312;-72
2021/09/22 05:22:15;;;;;;;12.40;9.45;;;;;;;13.11;100.00;100838.78;2853693;83;21042;-72
2021/09/22 05:26:15;;;;;;;14.70;10.95;;;;;;;13.11;100.00;100839.65;2802940;84;21066;-71
2021/09/22 05:30:16;;;;;;;15.40;11.12;;;;;;;13.12;100.00;100849.35;2853183;83;20983;-72
2021/09/22 05:34:19;;;;;;;14.60;10.32;;;;;;;13.12;100.00;100851.16;2853106;83;21057;-72
2021/09/22 05:38:22;;;;;;;19.95;10.40;;;;;;;13.16;100.00;100848.59;2853433;82;21002;-72
2021/09/22 05:42:25;;;;;;;14.50;9.85;;;;;;;13.21;100.00;100857.55;2853402;83;21018;-72
2021/09/22 05:46:27;;;;;;;17.42;10.30;;;;;;;13.24;100.00;100861.30;2853455;82;21002;-72
2021/09/22 05:50:29;;;;;;;11.83;8.73;;;;;;;13.26;100.00;100864.21;2853037;83;21346;-71
2021/09/22 05:54:33;;;;;;;8.20;6.67;;;;;;;13.29;100.00;100873.30;2853367;83;21093;-71
2021/09/22 05:58:35;;;;;;;9.98;8.10;;;;;;;13.33;100.00;100871.70;2853193;82;21054;-71
2021/09/22 06:02:37;;;;;;;10.05;8.60;;;;;;;13.39;100.00;100867.20;2852766;83;21047;-71
2021/09/22 06:06:39;;;;;;;11.00;7.03;;;;;;;13.41;100.00;100877.27;2853185;83;21530;-72
2021/09/22 06:10:40;;;;;;;7.95;6.25;;;;;;;13.44;100.00;100878.37;2853556;83;21053;-72
2021/09/22 06:14:42;;;;;;;2.35;1.50;;;;;;;13.52;100.00;100907.95;2853303;83;21065;-73
2021/09/22 06:18:44;;;;;;;2.27;1.95;;;;;;;13.59;100.00;100914.13;2853659;83;21038;-75
2021/09/22 06:22:46;;;;;;;5.62;4.20;;;;;;;13.62;100.00;100926.73;2853891;83;21022;-75
2021/09/22 06:26:48;;;;;;;1.02;0.88;;;;;;;13.60;100.00;100924.67;2853673;83;21038;-77
2021/09/22 06:30:50;;;;;;;0.57;0.50;;;;;;;13.59;100.00;100929.66;2854109;83;21073;-76
2021/09/22 06:34:51;;;;;;;0.68;0.68;;;;;;;13.63;100.00;100928.92;2853753;82;21083;-76
2021/09/22 06:38:53;;;;;;;1.15;0.70;;;;;;;13.65;100.00;100928.30;2853443;82;21083;-77
2021/09/22 06:42:56;;;;;;;1.62;0.82;;;;;;;13.68;100.00;100933.39;2853678;82;20983;-77
2021/09/22 06:46:59;;;;;;;0.53;0.53;;;;;;;13.78;100.00;100936.13;2853624;83;21029;-76
2021/09/22 06:51:01;;;;;;;1.30;1.20;;;;;;;13.90;100.00;100932.89;2737476;85;21634;-74
2021/09/22 06:55:05;;;;;;;1.50;0.93;;;;;;;14.11;100.00;100933.70;2845406;83;21060;-73
2021/09/22 06:59:06;;;;;;;1.10;0.68;;;;;;;14.37;100.00;100928.40;2846826;83;20973;-72
2021/09/22 07:03:11;;;;;;;1.25;0.75;;;;;;;14.60;100.00;100940.23;2847196;83;21067;-70
2021/09/22 07:07:14;;;;;;;1.42;1.12;;;;;;;14.75;100.00;100945.61;2846986;82;21044;-71
2021/09/22 07:11:16;;;;;;;2.20;1.85;;;;;;;14.90;100.00;100948.73;2845044;83;21034;-71
2021/09/22 07:15:17;;;;;;;1.50;1.40;;;;;;;14.94;100.00;100951.52;2818542;82;21428;-71
2021/09/22 07:19:19;;;;;;;2.98;2.40;;;;;;;14.91;100.00;100955.78;2832906;83;21077;-71
2021/09/22 07:23:23;;;;;;;2.15;1.90;;;;;;;14.76;98.92;100969.23;2839534;82;21106;-70
2021/09/22 07:27:26;;;;;;;7.22;4.45;;;;;;;14.58;98.78;100984.56;2839140;82;21043;-71
2021/09/22 07:31:28;;;;;;;5.75;4.03;;;;;;;14.42;99.10;100983.70;2839932;84;21006;-71
2021/09/22 07:35:30;;;;;;;13.55;8.25;;;;;;;14.23;98.27;101003.20;2839463;82;21042;-72
2021/09/22 07:39:31;;;;;;;5.45;4.12;;;;;;;14.00;98.90;101010.03;2839964;82;21030;-71
2021/09/22 07:43:34;;;;;;;7.62;4.60;;;;;;;13.85;99.09;101025.05;2839523;83;21028;-72
2021/09/22 07:47:37;;;;;;;6.50;5.08;;;;;;;13.67;99.21;101023.92;2839663;82;21048;-72
2021/09/22 07:51:39;;;;;;;4.67;3.35;;;;;;;13.53;99.02;101040.61;2853233;83;20991;-73
2021/09/22 07:55:41;;;;;;;4.92;4.37;;;;;;;13.45;99.87;101045.75;2859429;81;21021;-73
2021/09/22 07:59:44;;;;;;;7.65;4.83;;;;;;;13.45;100.00;101053.77;2853262;82;21022;-73
2021/09/22 08:03:47;;;;;;;4.20;3.02;;;;;;;13.48;100.00;101060.19;2853386;83;20991;-73
2021/09/22 08:07:49;;;;;;;7.75;6.90;;;;;;;13.49;100.00;101066.41;2853700;82;21042;-75
2021/09/22 08:11:51;;;;;;;5.10;4.60;;;;;;;13.51;100.00;101073.30;2857770;83;21010;-74
2021/09/22 08:20:11;;;;;;;4.57;3.83;;;;;;;13.44;99.40;101085.48;2920019;80;23774;-74
2021/09/22 08:24:13;;;;;;;5.30;4.03;;;;;;;13.41;99.16;101084.36;2964945;79;21153;-74
2021/09/22 08:28:15;;;;;;;4.97;4.45;;;;;;;13.38;100.00;101086.78;2955282;79;21049;-73
2021/09/22 08:32:17;;;;;;;7.05;5.15;;;;;;;13.38;100.00;101094.80;2957501;80;21661;-74
2021/09/22 08:36:20;;;;;;;5.95;4.72;;;;;;;13.38;100.00;101093.47;2919826;80;20992;-73
2021/09/22 08:40:22;;;;;;;5.30;4.33;;;;;;;13.37;99.38;101098.95;2943692;79;20999;-72
2021/09/22 08:44:25;;;;;;;11.20;7.50;;;;;;;13.35;99.71;101105.75;2912181;80;21023;-73
2021/09/22 08:48:27;;;;;;;6.33;4.37;;;;;;;13.35;100.00;101103.55;2902547;80;21046;-73
2021/09/22 08:52:29;;;;;;;4.45;4.05;;;;;;;13.36;100.00;101111.45;2931529;80;21007;-73
2021/09/22 08:56:34;;;;;;;5.22;4.62;;;;;;;13.40;100.00;101102.70;2930209;80;21018;-72
2021/09/22 09:00:38;;;;;;;9.48;5.08;;;;;;;13.44;100.00;101098.84;2964163;79;21015;-72
2021/09/22 09:04:45;;;;;;;5.55;4.12;;;;;;;13.58;100.00;101103.55;2913619;79;20971;-72
2021/09/22 09:08:51;;;;;;;5.53;4.95;;;;;;;13.76;100.00;101110.55;2901060;82;21007;-72
2021/09/22 09:13:06;;;;;;;2.52;2.33;;;;;;;13.94;100.00;101110.83;2883786;81;21142;-72
2021/09/22 09:17:19;;;;;;;6.60;4.03;;;;;;;14.11;98.94;101114.79;2915318;80;20999;-71
2021/09/22 09:21:13;;;;;;;4.47;3.50;;;;;;;14.25;98.63;101121.17;2925067;80;21038;-71
2021/09/22 09:25:25;;;;;;;5.60;3.87;;;;;;;14.24;97.05;101118.11;2964539;79;21264;-72
2021/09/22 09:29:27;;;;;;;4.60;2.55;;;;;;;14.22;97.24;101129.94;2964364;79;21208;-71
2021/09/22 09:33:53;;;;;;;4.03;3.45;;;;;;;14.13;96.47;101136.91;2951273;80;21234;-71
2021/09/22 09:37:56;;;;;;;3.77;3.00;;;;;;;14.09;96.97;101138.98;2964744;79;20980;-72
2021/09/22 09:41:59;;;;;;;3.50;2.15;;;;;;;14.06;96.91;101145.93;2964699;79;20984;-72
2021/09/22 09:46:00;;;;;;;4.03;2.72;;;;;;;14.10;97.02;101150.55;2964400;79;20975;-71
2021/09/22 09:50:22;;;;;;;2.87;1.90;;;;;;;14.05;95.59;101150.92;2964734;79;21015;-71
2021/09/22 09:54:28;;;;;;;3.98;2.05;;;;;;;14.01;95.70;101145.47;2954532;80;21043;-71
2021/09/22 09:58:36;;;;;;;;;;;;;;;14.01;95.51;101145.47;2925604;79;21298;-71
2021/09/22 10:02:38;;;;;;;2.75;2.37;;;;;;;13.99;95.09;101144.75;2925177;80;20093;-71
2021/09/22 10:06:43;;;;;;;4.83;2.65;;;;;;;13.99;94.96;101148.27;2961648;79;21475;-71
2021/09/22 10:10:50;;;;;;;3.33;2.93;;;;;;;13.96;94.99;101149.02;2917110;80;21019;-71
2021/09/22 10:14:54;;;;;;;4.15;3.12;;;;;;;13.90;94.71;101149.51;2930016;80;21058;-71
2021/09/22 10:19:01;;;;;;;4.70;2.85;;;;;;;13.96;95.25;101149.86;2921982;81;21018;-71
2021/09/22 10:23:04;;;;;;;4.20;3.52;;;;;;;14.05;94.53;101150.05;2929027;80;21494;-71
2021/09/22 10:27:07;;;;;;;3.10;2.35;;;;;;;14.08;94.26;101164.03;2928365;81;21091;-71
2021/09/22 10:31:20;;;;;;;3.92;3.20;;;;;;;14.10;93.17;101161.25;2938046;80;21018;-71
2021/09/22 10:35:35;;;;;;;6.70;3.83;;;;;;;14.02;91.73;101157.87;2899225;80;21038;-70
2021/09/22 10:39:40;;;;;;;6.35;4.78;;;;;;;13.94;91.84;101156.30;2952934;80;21042;-71
2021/09/22 10:43:44;;;;;;;9.80;4.83;;;;;;;13.93;92.85;101162.63;2950655;79;20999;-72
2021/09/22 10:47:49;;;;;;;6.17;4.67;;;;;;;14.01;93.74;101158.84;2955319;80;20980;-71
2021/09/22 10:51:51;;;;;;;6.40;4.35;;;;;;;14.05;93.18;101164.30;2944845;80;20948;-71
2021/09/22 10:56:29;;;;;;;6.08;4.62;;;;;;;14.10;93.25;101163.92;2980423;80;20999;-71
2021/09/22 11:00:36;;;;;;;8.45;4.85;;;;;;;14.18;92.88;101163.28;2973562;80;20987;-72
2021/09/22 11:04:59;;;;;;;5.42;4.15;;;;;;;14.25;90.94;101161.78;2956126;80;21019;-72
2021/09/22 11:09:07;;;;;;;7.72;4.22;;;;;;;14.35;91.62;101159.19;2923213;80;21038;-72
2021/09/22 11:13:26;;;;;;;4.65;4.15;;;;;;;14.51;91.32;101153.38;2919275;80;20992;-72
2021/09/22 11:17:32;;;;;;;7.80;6.15;;;;;;;14.78;91.92;101146.69;2922879;80;21030;-71
2021/09/22 11:21:37;;;;;;;4.62;3.85;;;;;;;15.09;90.30;101146.69;2910095;80;21038;-72
2021/09/22 11:25:39;;;;;;;7.03;4.22;;;;;;;15.31;88.42;101144.31;2909815;79;21011;-71
2021/09/22 11:29:49;;;;;;;5.72;4.60;;;;;;;15.46;87.77;101138.07;2933453;80;20963;-72
2021/09/22 11:33:58;;;;;;;7.70;5.10;;;;;;;15.54;86.36;101132.89;2923236;80;21042;-71
2021/09/22 11:38:02;;;;;;;6.87;6.15;;;;;;;15.63;85.78;101134.38;2916691;80;21014;-72
2021/09/22 11:42:05;;;;;;;7.30;6.60;;;;;;;15.78;86.15;101137.02;2904283;80;21023;-72
2021/09/22 11:46:10;;;;;;;8.93;5.65;;;;;;;15.94;85.33;101126.27;2950505;78;21081;-71
2021/09/22 11:50:35;;;;;;;6.90;5.40;;;;;;;16.05;83.73;101120.74;2963657;80;20952;-71
2021/09/22 11:54:43;;;;;;;6.35;5.75;;;;;;;16.23;83.44;101124.06;2929476;80;21290;-71
2021/09/22 12:07:16;;;;;;;7.70;4.83;;;;;;;16.46;80.42;101134.00;3000959;78;21059;-73
2021/09/22 12:11:21;;;;;;;9.80;5.87;;;;;;;16.42;80.58;101131.27;3023818;78;20983;-70
2021/09/22 12:15:22;;;;;;;6.93;5.43;;;;;;;16.35;80.50;101142.20;2876309;82;20979;-70
2021/09/22 12:19:48;;;;;;;6.33;5.60;;;;;;;16.24;81.85;101134.67;2934671;81;21059;-71
2021/09/22 12:23:52;;;;;;;7.40;5.63;;;;;;;16.21;82.18;101129.59;2933003;81;21091;-69
2021/09/22 12:28:30;;;;;;;8.60;6.45;;;;;;;16.26;81.36;101139.88;2934223;81;21095;-76
2021/09/22 12:32:54;;;;;;;8.35;6.35;;;;;;;16.15;81.58;101144.06;2928599;80;21058;-70
2021/09/22 12:37:01;;;;;;;9.40;8.20;;;;;;;16.10;82.11;101139.11;2934118;81;21035;-74
2021/09/22 12:41:08;;;;;;;7.85;6.67;;;;;;;16.13;81.52;101137.00;2934629;81;21023;-73
2021/09/22 12:45:18;;;;;;;7.42;6.08;;;;;;;16.16;81.17;101136.36;2934573;81;21328;-69
2021/09/22 12:49:27;;;;;;;9.10;6.47;;;;;;;16.10;80.49;101134.58;2933022;81;21477;-72
2021/09/22 12:53:33;;;;;;;12.53;5.95;;;;;;;16.09;82.40;101132.05;2956742;80;20980;-68
2021/09/22 12:57:55;;;;;;;8.98;6.60;;;;;;;16.14;80.55;101140.52;2926943;79;20976;-69
2021/09/22 13:01:59;;;;;;;7.70;6.28;;;;;;;16.16;80.10;101129.14;2875210;82;20987;-71
2021/09/22 13:06:30;;;;;;;8.98;7.55;;;;;;;16.19;81.07;101134.73;2956017;80;21066;-71
2021/09/22 13:10:31;;;;;;;9.08;6.78;;;;;;;16.22;80.38;101125.05;2886549;81;21113;-70
2021/09/22 13:14:40;;;;;;;11.55;5.33;;;;;;;16.36;80.71;101115.70;2904451;81;21009;-65
2021/09/22 13:18:44;;;;;;;5.47;4.85;;;;;;;16.44;79.13;101114.98;2934159;80;21036;-65
2021/09/22 13:22:50;;;;;;;6.45;5.30;;;;;;;16.42;78.50;101116.49;2972498;78;21021;-67
2021/09/22 13:26:56;;;;;;;9.20;5.55;;;;;;;16.44;79.06;101113.64;3026946;78;20955;-67
2021/09/22 13:31:00;;;;;;;5.10;4.53;;;;;;;16.41;78.31;101102.20;2959100;79;20974;-67
2021/09/22 13:35:07;;;;;;;5.40;3.90;;;;;;;16.39;77.69;101107.36;2935198;80;20975;-68
2021/09/22 13:39:11;;;;;;;5.83;4.65;;;;;;;16.39;78.82;101100.16;2935462;81;21003;-68
2021/09/22 13:43:17;;;;;;;6.58;4.95;;;;;;;16.47;79.23;101081.13;2935243;81;21003;-67
2021/09/22 13:47:17;;;;;;;4.45;3.45;;;;;;;16.65;79.41;101088.78;2934698;81;21248;-67
2021/09/22 13:51:19;;;;;;;4.95;4.55;;;;;;;16.85;78.42;101089.58;2958651;79;21239;-65
2021/09/22 13:55:23;;;;;;;6.00;4.60;;;;;;;17.01;78.22;101072.49;2958148;80;21034;-61
2021/09/22 13:59:24;;;;;;;5.70;3.65;;;;;;;17.05;76.75;101065.81;2934641;81;21041;-62
2021/09/22 14:03:27;;;;;;;5.75;4.78;;;;;;;16.92;77.15;101087.15;2958431;80;20928;-63
2021/09/22 14:07:52;;;;;;;5.10;4.60;;;;;;;16.88;78.68;101081.70;2960274;79;20991;-62
2021/09/22 14:12:01;;;;;;;6.80;5.13;;;;;;;16.63;77.22;101085.40;2949171;80;21007;-60
2021/09/22 14:16:07;;;;;;;4.87;3.65;;;;;;;16.41;77.32;101090.13;2874927;81;20999;-61
2021/09/22 14:20:12;;;;;;;6.97;4.70;;;;;;;16.21;79.08;101087.12;2865643;82;21012;-61
2021/09/22 14:24:17;;;;;;;7.77;5.60;;;;;;;16.03;80.20;101091.86;2925489;81;21075;-61
2021/09/22 14:28:23;;;;;;;6.47;5.60;;;;;;;15.95;80.61;101081.01;2924933;80;21001;-61
2021/09/22 14:32:25;;;;;;;5.37;4.80;;;;;;;15.98;80.78;101085.58;2926741;80;21014;-63
2021/09/22 14:36:40;;;;;;;4.67;3.83;;;;;;;15.97;81.27;101085.73;2905176;81;20970;-61
2021/09/22 14:40:45;;;;;;;7.20;5.78;;;;;;;15.91;81.23;101088.48;2951850;80;20928;-61
2021/09/22 14:44:48;;;;;;;5.20;4.65;;;;;;;15.87;83.01;101080.81;2949473;80;20967;-62
2021/09/22 14:48:57;;;;;;;9.25;7.20;;;;;;;15.95;83.18;101081.01;2898000;82;21034;-62
2021/09/22 14:52:59;;;;;;;6.40;5.70;;;;;;;16.03;83.92;101074.42;2896840;81;21346;-63
2021/09/22 14:57:01;;;;;;;9.40;6.05;;;;;;;16.23;84.21;101073.06;2895495;82;21007;-63
2021/09/22 15:01:03;;;;;;;6.60;5.95;;;;;;;16.35;83.92;101072.39;2848813;82;20971;-63
2021/09/22 15:05:07;;;;;;;7.65;6.58;;;;;;;16.37;82.95;101075.30;2845981;83;21058;-63
2021/09/22 15:09:09;;;;;;;8.23;5.37;;;;;;;16.35;81.71;101068.37;2852577;83;21062;-63
2021/09/22 15:13:11;;;;;;;8.53;7.22;;;;;;;16.27;81.94;101061.03;2906018;80;20999;-63
2021/09/22 15:17:12;;;;;;;12.23;10.93;;;;;;;16.21;82.01;101064.30;2905415;82;21270;-62
2021/09/22 15:21:15;;;;;;;13.48;7.95;;;;;;;16.08;81.34;101064.09;2928102;80;21101;-62
2021/09/22 15:25:29;;;;;;;7.45;4.87;;;;;;;15.99;81.55;101057.75;2983592;80;20996;-62
2021/09/22 15:29:31;;;;;;;6.40;4.62;;;;;;;15.91;81.81;101054.08;2903107;80;21028;-62
2021/09/22 15:33:35;;;;;;;6.00;5.40;;;;;;;15.89;82.79;101048.02;2956803;80;20988;-63
2021/09/22 15:37:38;;;;;;;8.33;4.95;;;;;;;15.88;82.86;101050.31;2905680;82;21015;-62
2021/09/22 15:42:00;;;;;;;7.78;6.45;;;;;;;15.90;82.73;101051.05;2905694;80;21016;-62
2021/09/22 15:46:03;;;;;;;10.05;7.45;;;;;;;15.91;82.18;101052.74;2853533;83;20956;-63
2021/09/22 15:50:09;;;;;;;6.62;4.50;;;;;;;15.93;82.79;101050.28;2916588;80;20991;-62
2021/09/22 15:54:16;;;;;;;8.08;5.78;;;;;;;15.93;82.75;101046.25;2983934;79;21040;-62
2021/09/22 15:58:18;;;;;;;9.15;6.30;;;;;;;15.93;81.86;101036.03;2903121;82;20978;-62
2021/09/22 16:02:21;;;;;;;6.00;4.60;;;;;;;15.90;81.69;101043.86;2983884;80;20999;-63
2021/09/22 16:06:33;;;;;;;7.60;5.67;;;;;;;15.77;82.48;101034.73;2903264;82;20991;-64
2021/09/22 16:10:34;;;;;;;8.98;7.00;;;;;;;15.67;83.29;101041.44;2934688;80;21026;-62
2021/09/22 16:14:36;;;;;;;9.18;7.17;;;;;;;15.63;83.43;101037.83;2958363;79;20996;-62
2021/09/22 16:18:40;;;;;;;7.65;4.80;;;;;;;15.58;84.11;101040.09;2957714;80;20976;-62
2021/09/22 16:22:52;;;;;;;5.75;5.22;;;;;;;15.49;84.73;101041.78;2958112;80;21016;-61
2021/09/22 16:26:54;;;;;;;5.80;4.70;;;;;;;15.43;85.64;101043.18;2958207;80;20909;-63
2021/09/22 16:31:00;;;;;;;7.35;5.55;;;;;;;15.41;85.82;101038.45;2958310;80;21050;-64
2021/09/22 16:35:00;;;;;;;7.72;4.42;;;;;;;15.39;86.68;101042.59;2957498;79;20992;-63
2021/09/22 16:39:32;;;;;;;5.60;4.58;;;;;;;15.41;86.59;101035.77;2958145;80;21034;-62
2021/09/22 16:43:34;;;;;;;6.12;4.83;;;;;;;15.44;87.07;101043.53;2958120;80;20991;-72
2021/09/22 16:47:36;;;;;;;5.72;3.92;;;;;;;15.49;87.01;101039.09;2927975;80;20999;-63
2021/09/22 16:51:37;;;;;;;4.83;4.30;;;;;;;15.48;87.06;101040.09;2958516;79;21024;-68
2021/09/22 16:56:42;;;;;;;6.87;3.87;;;;;;;15.47;87.53;101045.93;2906827;82;20991;-68
2021/09/22 17:00:44;;;;;;;4.90;3.62;;;;;;;15.46;87.67;101046.92;2907013;82;21006;-68
2021/09/22 17:04:48;;;;;;;5.50;4.03;;;;;;;15.37;87.65;101041.06;2957090;80;21003;-68
2021/09/22 17:08:50;;;;;;;7.10;4.28;;;;;;;15.34;87.68;101038.16;2956575;79;21038;-68
2021/09/22 17:12:52;;;;;;;6.30;5.00;;;;;;;15.37;88.08;101037.05;2958893;80;20983;-69
2021/09/22 17:16:55;;;;;;;6.53;4.83;;;;;;;15.35;87.68;101035.00;2958963;80;20976;-69
2021/09/22 17:22:00;;;;;;;6.80;4.20;;;;;;;15.32;87.75;101036.59;2958634;79;21035;-70
2021/09/22 17:26:01;;;;;;;6.17;4.90;;;;;;;15.28;88.28;101040.89;2958283;80;21271;-67
2021/09/22 17:30:08;;;;;;;4.45;3.75;;;;;;;15.38;89.01;101034.20;2958797;79;20917;-66
2021/09/22 17:34:11;;;;;;;5.53;4.20;;;;;;;15.28;88.10;101040.06;2958915;80;20971;-64
2021/09/22 17:38:14;;;;;;;5.33;4.67;;;;;;;15.18;88.17;101038.70;2958996;79;21008;-64
2021/09/22 17:42:16;;;;;;;8.48;7.12;;;;;;;15.07;88.60;101044.16;2958114;79;21264;-64
2021/09/22 17:46:57;;;;;;;8.88;6.65;;;;;;;14.97;89.03;101038.30;2958346;79;21019;-63
2021/09/22 17:51:04;;;;;;;9.25;6.30;;;;;;;14.96;89.52;101044.64;2958748;80;20975;-64
2021/09/22 17:55:07;;;;;;;7.17;6.45;;;;;;;14.88;90.43;101036.41;2957953;80;20983;-65
2021/09/22 17:59:19;;;;;;;8.70;7.30;;;;;;;14.89;90.98;101034.09;2958762;80;20952;-64
2021/09/22 18:03:22;;;;;;;6.87;5.87;;;;;;;14.94;91.63;101030.53;2958811;79;21011;-65
2021/09/22 18:07:31;;;;;;;6.45;5.60;;;;;;;15.12;92.12;101032.05;2949636;80;21159;-65
2021/09/22 18:11:35;;;;;;;8.93;6.95;;;;;;;15.34;91.59;101022.58;3012421;79;21018;-64
2021/09/22 18:15:44;;;;;;;6.58;5.40;;;;;;;15.54;90.56;101023.43;3012158;77;20983;-64
2021/09/22 18:19:49;;;;;;;6.55;5.67;;;;;;;15.62;89.04;101024.07;3012602;79;20976;-65
2021/09/22 18:24:02;;;;;;;6.55;5.05;;;;;;;15.65;88.96;101027.33;3012663;77;20996;-65
2021/09/22 18:28:05;;;;;;;6.47;5.17;;;;;;;15.70;88.51;101024.20;3011916;79;21019;-64
2021/09/22 18:32:09;;;;;;;8.50;6.60;;;;;;;15.72;88.38;101018.20;3012594;79;20971;-64
2021/09/22 18:36:47;;;;;;;9.05;7.42;;;;;;;15.72;88.50;101019.54;3012155;78;21046;-64
2021/09/22 18:40:51;;;;;;;10.68;7.17;;;;;;;15.76;88.84;101019.63;2965854;79;20953;-65
2021/09/22 18:44:53;;;;;;;13.35;8.05;;;;;;;15.80;89.14;101015.67;2956665;76;20926;-64
2021/09/22 18:48:59;;;;;;;13.55;8.73;;;;;;;15.79;88.63;101015.80;2956371;80;21864;-64
2021/09/22 18:53:02;;;;;;;16.45;8.68;;;;;;;15.74;88.07;101016.25;3009147;76;20992;-64
2021/09/22 18:57:06;;;;;;;9.90;8.10;;;;;;;15.67;89.10;101013.77;3012456;78;20991;-65
2021/09/22 19:01:18;;;;;;;12.33;8.00;;;;;;;15.69;89.16;101013.98;3016817;78;20980;-65
2021/09/22 19:05:21;;;;;;;10.32;7.25;;;;;;;15.74;89.58;101010.88;3006246;79;21051;-65